Time;durP1;ratioP1;P1;durP2;ratioP2;P2;SDS_P1;SDS_P2;PMS_P1;PMS_P2;Temp;Humidity;BMP_temperature;BMP_pressure;BME280_temperature;BME280_humidity;BME280_pressure;Samples;Min_cycle;Max_cycle;Signal;HPM_P1;HPM_P2
2022/09/14 00:01:16;;;;;;;9.00;3.10;;;15.80;99.90;;;;;;6117678;23;20006;-86
2022/09/14 00:03:42;;;;;;;8.57;2.38;;;15.80;99.90;;;;;;6117823;23;20002;-86
2022/09/14 00:06:11;;;;;;;9.85;2.60;;;15.80;99.90;;;;;;6117838;23;20060;-87
2022/09/14 00:08:37;;;;;;;7.95;2.40;;;15.70;99.90;;;;;;6118019;23;20006;-85
2022/09/14 00:11:10;;;;;;;7.47;2.60;;;15.70;99.90;;;;;;6117605;23;20002;-86
2022/09/14 00:13:37;;;;;;;6.18;2.10;;;15.60;99.90;;;;;;6119241;23;20005;-84
2022/09/14 00:16:10;;;;;;;13.70;2.85;;;15.60;99.90;;;;;;6117379;23;20010;-86
2022/09/14 00:18:36;;;;;;;11.07;2.30;;;15.60;99.90;;;;;;6119634;23;20015;-85
2022/09/14 00:21:05;;;;;;;6.97;2.28;;;15.50;99.90;;;;;;6118072;23;20323;-87
2022/09/14 00:23:33;;;;;;;7.43;2.78;;;15.50;99.90;;;;;;6118996;23;20029;-87
2022/09/14 00:26:07;;;;;;;8.98;2.03;;;15.50;99.90;;;;;;6117593;23;20060;-86
2022/09/14 00:28:40;;;;;;;6.53;1.77;;;15.40;99.90;;;;;;6119332;23;20089;-87
2022/09/14 00:31:06;;;;;;;5.88;2.00;;;15.40;99.90;;;;;;6117725;23;20037;-84
2022/09/14 00:33:33;;;;;;;12.68;2.22;;;15.30;99.90;;;;;;6118542;23;20005;-88
2022/09/14 00:36:16;;;;;;;9.25;1.75;;;15.30;99.90;;;;;;6117519;23;20100;-87
2022/09/14 00:38:42;;;;;;;4.10;1.58;;;15.20;99.90;;;;;;6118456;23;20088;-86
2022/09/14 00:41:11;;;;;;;4.93;1.70;;;15.20;99.90;;;;;;6117141;23;20026;-86
2022/09/14 00:44:06;;;;;;;4.68;2.28;;;15.20;99.90;;;;;;6119565;23;20002;-88
2022/09/14 00:47:00;;;;;;;5.90;1.80;;;15.10;99.90;;;;;;6117415;23;20048;-86
2022/09/14 00:49:33;;;;;;;10.38;1.80;;;15.10;99.90;;;;;;6118223;23;20332;-88
2022/09/14 00:52:09;;;;;;;17.67;3.30;;;15.10;99.90;;;;;;6117172;23;20043;-85
2022/09/14 00:54:45;;;;;;;8.15;1.50;;;15.10;99.90;;;;;;6118307;23;20063;-88
2022/09/14 00:57:11;;;;;;;8.80;1.92;;;15.00;99.90;;;;;;6271829;22;20016;-87
2022/09/14 00:59:39;;;;;;;8.95;1.88;;;15.10;99.90;;;;;;6273464;22;20027;-87
2022/09/14 01:02:08;;;;;;;7.53;1.63;;;15.00;99.90;;;;;;6271107;22;20551;-84
2022/09/14 01:04:35;;;;;;;5.88;2.03;;;15.00;99.90;;;;;;6273162;22;20015;-87
2022/09/14 01:07:37;;;;;;;9.02;1.42;;;15.00;99.90;;;;;;6271550;22;20011;-86
2022/09/14 01:10:30;;;;;;;8.35;1.80;;;15.00;99.90;;;;;;6272361;22;20032;-87
2022/09/14 01:13:07;;;;;;;9.65;1.67;;;15.00;99.90;;;;;;6272801;22;20337;-86
2022/09/14 01:15:57;;;;;;;7.30;1.95;;;14.90;99.90;;;;;;6271494;22;20000;-84
2022/09/14 01:18:37;;;;;;;3.97;1.42;;;14.90;99.90;;;;;;6273281;22;20007;-87
2022/09/14 01:21:14;;;;;;;7.10;1.40;;;14.90;99.90;;;;;;6270891;22;20502;-87
2022/09/14 01:24:10;;;;;;;6.20;1.65;;;14.90;99.90;;;;;;6244260;22;20032;-85
2022/09/14 01:26:57;;;;;;;5.65;1.77;;;14.80;99.90;;;;;;6272481;22;20057;-85
2022/09/14 01:29:44;;;;;;;8.38;1.30;;;14.80;99.90;;;;;;6272918;22;20039;-88
2022/09/14 01:32:17;;;;;;;6.15;1.75;;;14.80;99.90;;;;;;6271387;22;20010;-86
2022/09/14 01:34:48;;;;;;;11.93;1.70;;;14.70;99.90;;;;;;6272904;22;20505;-87
2022/09/14 01:37:23;;;;;;;3.83;1.10;;;14.80;99.90;;;;;;6272002;22;20004;-85
2022/09/14 01:39:53;;;;;;;5.10;1.35;;;14.70;99.90;;;;;;6273047;22;20011;-86
2022/09/14 01:42:23;;;;;;;6.60;1.42;;;14.70;99.90;;;;;;6271494;22;20035;-86
2022/09/14 01:44:54;;;;;;;7.43;1.77;;;14.60;99.90;;;;;;6273589;22;20290;-88
2022/09/14 01:47:31;;;;;;;7.75;2.20;;;14.70;99.90;;;;;;6270932;22;20079;-86
2022/09/14 01:50:21;;;;;;;6.60;1.50;;;14.60;99.90;;;;;;6271300;22;20069;-84
2022/09/14 01:53:19;;;;;;;8.43;2.40;;;14.60;99.90;;;;;;6272230;22;20004;-86
2022/09/14 01:55:51;;;;;;;7.75;0.95;;;14.50;99.90;;;;;;6152020;22;20096;-88
2022/09/14 01:58:41;;;;;;;4.15;1.30;;;14.50;99.90;;;;;;6118696;23;20077;-87
2022/09/14 02:01:12;;;;;;;12.77;3.15;;;14.50;99.90;;;;;;6120728;23;20435;-84
2022/09/14 02:03:46;;;;;;;11.40;2.88;;;14.50;99.90;;;;;;6117926;23;20013;-86
2022/09/14 02:06:38;;;;;;;7.15;1.00;;;14.40;99.90;;;;;;6117006;23;20505;-86
2022/09/14 02:09:06;;;;;;;5.68;1.15;;;14.30;99.90;;;;;;6120853;23;20006;-86
2022/09/14 02:11:35;;;;;;;6.25;1.27;;;14.30;99.90;;;;;;6117132;23;20025;-86
2022/09/14 02:14:01;;;;;;;8.85;1.15;;;14.20;99.90;;;;;;6119708;23;20081;-85
2022/09/14 02:16:33;;;;;;;3.42;0.98;;;14.20;99.90;;;;;;6117750;23;20041;-87
2022/09/14 02:19:00;;;;;;;9.25;1.65;;;14.20;99.90;;;;;;6118880;23;20013;-88
2022/09/14 02:21:29;;;;;;;5.00;1.17;;;14.10;99.90;;;;;;6117594;23;20297;-85
2022/09/14 02:23:56;;;;;;;5.07;1.33;;;14.10;99.90;;;;;;6119617;23;19998;-86
2022/09/14 02:26:22;;;;;;;11.35;1.83;;;14.00;99.90;;;;;;6117915;23;19994;-84
2022/09/14 02:28:48;;;;;;;8.10;1.08;;;14.00;99.90;;;;;;6119318;23;20014;-87
2022/09/14 02:31:14;;;;;;;10.30;1.85;;;14.00;99.90;;;;;;6118466;23;20324;-86
2022/09/14 02:34:07;;;;;;;3.53;1.10;;;13.90;99.90;;;;;;6118887;23;20006;-85
2022/09/14 02:37:01;;;;;;;4.75;1.10;;;13.90;99.90;;;;;;6116118;23;20428;-86
2022/09/14 02:39:48;;;;;;;7.72;1.80;;;13.90;99.90;;;;;;6119837;23;20025;-86
2022/09/14 02:42:26;;;;;;;8.70;1.17;;;13.80;99.90;;;;;;6117938;23;20005;-86
2022/09/14 02:44:57;;;;;;;6.95;1.42;;;13.80;99.90;;;;;;6118722;23;19994;-82
2022/09/14 02:47:43;;;;;;;3.50;1.10;;;13.80;99.90;;;;;;6117804;23;20036;-86
2022/09/14 02:50:18;;;;;;;;;;;13.80;99.90;;;;;;6120565;23;20018;-87
2022/09/14 02:53:13;;;;;;;3.00;0.82;;;13.80;99.90;;;;;;6118205;23;19908;-87
2022/09/14 02:55:44;;;;;;;3.63;1.13;;;13.80;99.90;;;;;;6118344;23;20355;-86
2022/09/14 02:58:11;;;;;;;5.20;1.20;;;13.80;99.90;;;;;;6117362;23;20067;-85
2022/09/14 03:00:40;;;;;;;6.47;1.52;;;13.90;99.90;;;;;;6118050;23;20002;-86
2022/09/14 03:03:07;;;;;;;4.45;1.00;;;13.80;99.90;;;;;;6118887;23;20009;-83
2022/09/14 03:05:40;;;;;;;5.68;1.30;;;13.80;99.90;;;;;;6118517;23;20442;-87
2022/09/14 03:08:06;;;;;;;5.78;1.40;;;13.90;99.90;;;;;;6118497;23;20002;-84
2022/09/14 03:10:40;;;;;;;3.55;1.27;;;13.90;99.90;;;;;;6120201;23;20009;-86
2022/09/14 03:13:06;;;;;;;9.50;1.50;;;13.80;99.90;;;;;;6118590;23;20010;-83
2022/09/14 03:15:31;;;;;;;7.35;1.55;;;13.90;99.90;;;;;;6119544;23;20088;-86
2022/09/14 03:17:57;;;;;;;5.07;1.70;;;13.90;99.90;;;;;;6118521;23;20048;-86
2022/09/14 03:20:30;;;;;;;12.48;1.60;;;13.90;99.90;;;;;;6119544;23;20044;-86
2022/09/14 03:22:57;;;;;;;5.22;1.25;;;13.80;99.90;;;;;;6118504;23;20009;-83
2022/09/14 03:25:23;;;;;;;6.72;1.50;;;13.90;99.90;;;;;;6119479;23;20006;-86
2022/09/14 03:27:51;;;;;;;1.80;1.00;;;13.80;99.90;;;;;;6118701;23;20009;-86
2022/09/14 03:30:17;;;;;;;5.18;1.77;;;13.80;99.90;;;;;;6120152;23;20005;-87
2022/09/14 03:32:43;;;;;;;4.25;0.98;;;13.80;99.90;;;;;;6118099;23;20017;-87
2022/09/14 03:35:09;;;;;;;8.27;2.05;;;13.80;99.90;;;;;;6119680;23;19998;-86
2022/09/14 03:37:39;;;;;;;4.07;1.13;;;13.80;99.90;;;;;;6118641;23;20052;-84
2022/09/14 03:40:06;;;;;;;7.07;1.42;;;13.90;99.90;;;;;;6117561;23;20037;-85
2022/09/14 03:42:32;;;;;;;2.00;0.82;;;13.80;99.90;;;;;;6118068;23;20005;-86
2022/09/14 03:44:57;;;;;;;6.30;1.33;;;13.80;99.90;;;;;;6118785;23;20001;-86
2022/09/14 03:47:23;;;;;;;3.33;1.05;;;13.90;99.90;;;;;;6117399;23;20335;-89
2022/09/14 03:49:49;;;;;;;5.72;1.10;;;13.80;99.90;;;;;;6117906;23;20002;-85
2022/09/14 03:52:15;;;;;;;3.55;0.90;;;13.90;99.90;;;;;;6115858;23;20014;-85
2022/09/14 03:54:49;;;;;;;4.75;1.00;;;13.90;99.90;;;;;;6119640;23;20006;-87
2022/09/14 03:57:15;;;;;;;5.13;1.23;;;13.90;99.90;;;;;;6092352;23;20089;-86
2022/09/14 03:59:40;;;;;;;3.92;0.90;;;13.90;99.90;;;;;;6115865;23;20009;-86
2022/09/14 04:02:06;;;;;;;2.28;1.05;;;13.90;99.90;;;;;;6116215;23;19998;-86
2022/09/14 04:04:32;;;;;;;2.47;0.98;;;13.90;99.90;;;;;;6118855;23;20002;-86
2022/09/14 04:06:57;;;;;;;5.00;1.08;;;13.90;99.90;;;;;;6117752;23;20002;-84
2022/09/14 04:09:23;;;;;;;7.10;1.35;;;13.90;99.90;;;;;;6118228;23;20010;-87
2022/09/14 04:11:49;;;;;;;5.95;1.73;;;13.90;99.90;;;;;;6118366;23;20006;-86
2022/09/14 04:43:24;;;;;;;4.50;1.35;;;13.90;99.90;;;;;;6119264;22;20021;-83
2022/09/14 04:45:51;;;;;;;1.30;0.98;;;13.80;99.90;;;;;;6116147;23;20028;-86
2022/09/14 04:48:16;;;;;;;1.98;1.13;;;13.90;99.90;;;;;;6118217;23;20014;-86
2022/09/14 04:50:42;;;;;;;3.78;0.98;;;13.90;99.90;;;;;;6117069;23;20076;-88
2022/09/14 04:53:08;;;;;;;6.22;1.08;;;13.90;99.90;;;;;;6118018;23;20036;-87
2022/09/14 04:55:34;;;;;;;3.28;1.02;;;14.00;99.90;;;;;;6119487;23;20010;-87
2022/09/14 04:58:00;;;;;;;4.20;1.40;;;14.00;99.90;;;;;;6118292;23;20439;-85
2022/09/14 05:00:26;;;;;;;6.00;1.10;;;14.00;99.90;;;;;;6118596;23;20001;-88
2022/09/14 05:02:51;;;;;;;2.85;0.77;;;14.00;99.90;;;;;;6118418;23;20364;-88
2022/09/14 05:05:17;;;;;;;4.70;1.10;;;14.10;99.90;;;;;;6119322;23;20003;-89
2022/09/14 05:07:45;;;;;;;4.30;1.40;;;14.10;99.90;;;;;;6117360;23;20029;-87
2022/09/14 05:10:11;;;;;;;3.92;1.08;;;14.10;99.90;;;;;;6118281;23;20412;-88
2022/09/14 05:12:39;;;;;;;5.25;1.10;;;14.10;99.90;;;;;;6117855;23;20028;-87
2022/09/14 05:15:06;;;;;;;5.45;1.30;;;14.10;99.90;;;;;;6092189;23;20022;-88
2022/09/14 05:17:34;;;;;;;2.00;1.13;;;14.20;99.90;;;;;;6118549;23;20010;-88
2022/09/14 05:19:59;;;;;;;3.13;1.33;;;14.20;99.90;;;;;;6117256;23;20006;-88
2022/09/14 05:22:25;;;;;;;4.50;1.20;;;14.20;99.90;;;;;;6118061;23;20419;-88
2022/09/14 05:24:50;;;;;;;2.78;1.20;;;14.20;99.90;;;;;;6116534;23;20122;-89
2022/09/14 05:27:16;;;;;;;3.88;1.10;;;14.20;99.90;;;;;;6115330;23;20097;-89
2022/09/14 05:29:41;;;;;;;6.55;1.35;;;14.20;99.90;;;;;;6090995;23;20059;-88
2022/09/14 05:32:07;;;;;;;3.25;1.00;;;14.20;99.90;;;;;;6115487;23;20002;-87
2022/09/14 05:34:35;;;;;;;3.38;1.10;;;14.30;99.90;;;;;;6118407;23;19998;-88
2022/09/14 05:37:01;;;;;;;3.22;1.00;;;14.30;99.90;;;;;;6117045;23;20006;-87
2022/09/14 05:39:26;;;;;;;3.13;1.10;;;14.30;99.90;;;;;;6119313;23;20319;-89
2022/09/14 05:41:52;;;;;;;8.50;1.30;;;14.30;99.90;;;;;;6118073;23;20005;-88
2022/09/14 05:44:18;;;;;;;4.75;1.42;;;14.30;99.90;;;;;;6119478;23;20419;-88
2022/09/14 05:46:43;;;;;;;13.23;1.63;;;14.40;99.90;;;;;;6118155;23;20014;-89
2022/09/14 05:49:08;;;;;;;4.43;1.23;;;14.40;99.90;;;;;;6120484;23;20089;-89
2022/09/14 05:51:34;;;;;;;8.27;1.48;;;14.40;99.90;;;;;;6118998;23;20048;-89
2022/09/14 05:53:59;;;;;;;4.22;1.23;;;14.40;99.90;;;;;;6118796;23;20006;-89
2022/09/14 05:56:28;;;;;;;4.15;1.40;;;14.50;99.90;;;;;;6118580;23;20026;-89
2022/09/14 05:58:54;;;;;;;4.32;1.35;;;14.50;99.90;;;;;;6118189;23;20070;-89
2022/09/14 06:01:23;;;;;;;5.90;1.20;;;14.50;99.90;;;;;;6118434;23;20029;-84
2022/09/14 06:03:52;;;;;;;7.32;1.50;;;14.50;99.90;;;;;;6118895;23;20013;-87
2022/09/14 06:06:19;;;;;;;6.88;1.50;;;14.60;99.90;;;;;;6118828;23;20419;-88
2022/09/14 06:08:46;;;;;;;13.88;1.95;;;14.60;99.90;;;;;;6118128;23;20084;-87
2022/09/14 06:11:15;;;;;;;9.82;1.67;;;14.70;99.90;;;;;;6115115;23;20006;-86
2022/09/14 06:13:41;;;;;;;6.15;1.38;;;14.70;99.90;;;;;;6115872;23;20055;-89
2022/09/14 06:16:10;;;;;;;6.18;1.13;;;14.70;99.90;;;;;;6117073;23;20096;-87
2022/09/14 06:18:37;;;;;;;1.88;1.10;;;14.80;99.90;;;;;;6117937;23;20005;-86
2022/09/14 06:21:03;;;;;;;5.30;1.40;;;14.80;99.90;;;;;;6094141;23;20002;-86
2022/09/14 06:23:30;;;;;;;3.10;0.82;;;14.80;99.90;;;;;;6117490;23;20594;-89
2022/09/14 06:25:57;;;;;;;1.40;0.90;;;14.80;99.90;;;;;;6119064;23;20264;-88
2022/09/14 06:28:24;;;;;;;5.82;1.25;;;14.90;99.90;;;;;;6117350;23;20407;-88
2022/09/14 06:30:50;;;;;;;3.65;1.17;;;14.90;99.90;;;;;;6118314;23;20415;-84
2022/09/14 06:33:17;;;;;;;3.33;1.00;;;14.90;99.90;;;;;;6118044;23;20081;-88
2022/09/14 06:35:45;;;;;;;5.50;0.93;;;15.00;99.90;;;;;;6119169;23;20006;-88
2022/09/14 06:38:11;;;;;;;2.28;0.80;;;15.00;99.90;;;;;;6118491;23;20439;-88
2022/09/14 06:40:36;;;;;;;4.07;1.08;;;15.00;99.90;;;;;;6117380;23;20009;-88
2022/09/14 06:43:02;;;;;;;3.50;1.20;;;15.00;99.90;;;;;;6091753;23;20012;-89
2022/09/14 06:45:29;;;;;;;5.20;1.00;;;15.00;99.90;;;;;;6120073;23;19995;-87
2022/09/14 06:47:56;;;;;;;3.67;1.10;;;15.00;99.90;;;;;;6118365;23;20013;-87
2022/09/14 06:50:22;;;;;;;1.50;1.05;;;15.00;99.90;;;;;;6119984;23;20005;-88
2022/09/14 06:52:47;;;;;;;6.00;1.40;;;15.00;99.90;;;;;;6119004;23;20006;-89
2022/09/14 06:55:13;;;;;;;3.47;1.30;;;15.10;99.90;;;;;;6119146;23;20097;-89
2022/09/14 06:57:38;;;;;;;2.67;1.27;;;15.10;99.90;;;;;;6118760;23;19994;-88
2022/09/14 07:00:04;;;;;;;4.93;1.05;;;15.10;99.90;;;;;;6120472;23;20006;-90
2022/09/14 07:02:30;;;;;;;3.20;1.05;;;15.10;99.90;;;;;;6119421;23;20006;-88
2022/09/14 07:04:56;;;;;;;1.88;1.00;;;15.10;99.90;;;;;;6120432;23;19994;-88
2022/09/14 07:07:22;;;;;;;4.43;1.50;;;15.10;99.90;;;;;;6119158;23;20424;-85
2022/09/14 07:09:50;;;;;;;4.85;1.27;;;15.10;99.90;;;;;;6120242;23;20014;-90
2022/09/14 07:12:16;;;;;;;5.50;1.63;;;15.10;99.90;;;;;;6118960;23;20545;-89
2022/09/14 07:14:41;;;;;;;4.20;1.10;;;15.10;99.90;;;;;;6119884;23;20033;-89
2022/09/14 07:17:07;;;;;;;3.65;1.50;;;15.20;99.90;;;;;;6119237;23;20002;-84
2022/09/14 07:19:35;;;;;;;5.40;1.58;;;15.10;99.90;;;;;;6117942;23;20033;-88
2022/09/14 07:22:01;;;;;;;7.00;1.50;;;15.10;99.90;;;;;;6112589;23;20450;-88
2022/09/14 07:24:26;;;;;;;5.40;1.85;;;15.10;99.90;;;;;;6116329;23;20002;-88
2022/09/14 07:26:52;;;;;;;5.55;1.35;;;15.20;99.90;;;;;;6115674;23;20012;-86
2022/09/14 07:29:20;;;;;;;3.25;1.25;;;15.20;99.90;;;;;;6119585;23;20006;-88
2022/09/14 07:31:51;;;;;;;5.55;1.38;;;15.30;99.90;;;;;;6093094;23;20002;-82
2022/09/14 07:34:17;;;;;;;5.70;2.38;;;15.20;99.90;;;;;;6117946;23;20002;-89
2022/09/14 07:36:43;;;;;;;4.32;1.40;;;15.30;99.90;;;;;;6117679;23;20052;-87
2022/09/14 07:39:12;;;;;;;3.38;1.30;;;15.30;99.90;;;;;;6118484;23;20327;-89
2022/09/14 07:41:37;;;;;;;7.13;1.52;;;15.30;99.90;;;;;;6118388;23;19998;-87
2022/09/14 07:44:06;;;;;;;6.05;1.67;;;15.30;99.90;;;;;;6119015;23;20010;-88
2022/09/14 07:46:39;;;;;;;5.38;1.05;;;15.30;99.90;;;;;;6119190;23;20040;-90
2022/09/14 07:49:06;;;;;;;3.55;1.00;;;15.30;99.90;;;;;;6117090;23;20021;-90
2022/09/14 07:51:33;;;;;;;4.55;1.27;;;15.30;99.90;;;;;;6119947;23;20006;-89
2022/09/14 07:54:00;;;;;;;4.93;1.40;;;15.30;99.90;;;;;;6117184;23;20408;-87
2022/09/14 07:56:26;;;;;;;6.63;1.38;;;15.30;99.90;;;;;;6118184;23;20002;-89
2022/09/14 07:58:54;;;;;;;6.90;1.60;;;15.30;99.90;;;;;;6117127;23;20017;-84
2022/09/14 08:01:21;;;;;;;8.05;2.03;;;15.30;99.90;;;;;;6117368;23;19998;-86
2022/09/14 08:03:47;;;;;;;7.85;2.05;;;15.40;99.90;;;;;;6118106;23;20032;-87
2022/09/14 08:06:25;;;;;;;3.35;1.10;;;15.30;99.90;;;;;;6120204;23;20006;-89
2022/09/14 08:08:52;;;;;;;7.78;1.70;;;15.30;99.90;;;;;;6117525;23;20013;-87
2022/09/14 08:11:24;;;;;;;3.72;1.48;;;15.30;99.90;;;;;;6119739;23;20077;-90
2022/09/14 08:14:02;;;;;;;7.97;1.85;;;15.30;99.90;;;;;;6118059;23;20176;-85
2022/09/14 08:16:29;;;;;;;3.78;1.48;;;15.30;99.90;;;;;;6119978;23;20073;-89
2022/09/14 08:18:57;;;;;;;10.20;1.95;;;15.30;99.90;;;;;;6117314;23;20556;-88
2022/09/14 08:21:24;;;;;;;5.18;2.13;;;15.40;99.90;;;;;;6119887;23;20412;-88
2022/09/14 08:23:50;;;;;;;4.53;1.50;;;15.30;99.90;;;;;;6118409;23;20006;-87
2022/09/14 08:26:21;;;;;;;6.68;2.28;;;15.30;99.90;;;;;;6119462;23;20442;-88
2022/09/14 08:28:47;;;;;;;4.22;1.70;;;15.30;99.90;;;;;;6117648;23;20009;-87
2022/09/14 08:31:21;;;;;;;25.90;3.20;;;15.40;99.90;;;;;;6119894;23;20069;-89
2022/09/14 08:33:50;;;;;;;10.63;2.28;;;15.30;99.90;;;;;;6118264;23;20006;-89
2022/09/14 08:36:18;;;;;;;11.02;2.50;;;15.40;99.90;;;;;;6119780;23;20013;-89
2022/09/14 08:38:44;;;;;;;8.38;2.65;;;15.30;99.90;;;;;;6118310;23;20012;-89
2022/09/14 08:41:30;;;;;;;9.25;2.70;;;15.30;99.90;;;;;;6119447;23;20006;-87
2022/09/14 08:44:04;;;;;;;8.93;2.17;;;15.30;99.90;;;;;;6116797;23;20026;-87
2022/09/14 08:46:37;;;;;;;7.43;2.15;;;15.40;99.90;;;;;;6092968;23;20420;-89
2022/09/14 08:49:10;;;;;;;7.07;1.92;;;15.40;99.90;;;;;;6117923;23;20431;-89
2022/09/14 08:51:35;;;;;;;10.95;2.10;;;15.40;99.90;;;;;;6119210;23;20006;-88
2022/09/14 08:54:01;;;;;;;6.97;1.95;;;15.40;99.90;;;;;;6117425;23;20012;-89
2022/09/14 08:56:36;;;;;;;6.05;1.70;;;15.40;99.90;;;;;;6092790;23;20052;-90
2022/09/14 08:59:26;;;;;;;10.40;2.58;;;15.40;99.90;;;;;;6118276;23;20020;-88
2022/09/14 09:02:18;;;;;;;8.55;1.95;;;15.50;99.90;;;;;;6118111;23;20048;-85
2022/09/14 09:04:47;;;;;;;9.82;1.70;;;15.50;99.90;;;;;;6118485;23;20017;-88
2022/09/14 09:07:18;;;;;;;10.18;1.90;;;15.40;99.90;;;;;;6118029;23;20009;-89
2022/09/14 09:09:47;;;;;;;7.28;1.38;;;15.50;99.90;;;;;;6118483;23;20010;-85
2022/09/14 09:12:26;;;;;;;5.68;1.35;;;15.50;99.90;;;;;;6117405;23;20025;-90
2022/09/14 09:14:59;;;;;;;6.90;1.20;;;15.40;99.90;;;;;;6118224;23;20045;-89
2022/09/14 09:17:31;;;;;;;6.00;1.38;;;15.40;99.90;;;;;;6116886;23;20006;-88
2022/09/14 09:20:15;;;;;;;7.43;1.20;;;15.40;99.90;;;;;;6118046;23;20006;-90
2022/09/14 09:23:15;;;;;;;10.82;1.70;;;15.40;99.90;;;;;;6118931;23;20002;-89
2022/09/14 09:26:12;;;;;;;9.52;1.73;;;15.50;99.90;;;;;;6111218;23;20010;-90
2022/09/14 09:28:47;;;;;;;8.52;1.52;;;15.50;99.90;;;;;;6119264;23;20063;-88
2022/09/14 09:31:14;;;;;;;10.23;2.00;;;15.50;99.90;;;;;;6119726;23;20005;-89
2022/09/14 09:33:48;;;;;;;2.05;0.90;;;15.50;99.90;;;;;;6117508;23;20038;-87
2022/09/14 09:36:14;;;;;;;8.82;1.75;;;15.50;99.90;;;;;;6117646;23;20427;-89
2022/09/14 09:38:47;;;;;;;9.40;1.60;;;15.50;99.90;;;;;;6116524;23;20037;-87
2022/09/14 09:41:23;;;;;;;4.22;1.27;;;15.50;99.90;;;;;;6117121;23;20028;-89
2022/09/14 09:43:59;;;;;;;;;;;15.50;99.90;;;;;;6118278;23;20022;-88
2022/09/14 09:46:28;;;;;;;3.38;1.40;;;15.40;99.90;;;;;;6119692;23;19901;-89
2022/09/14 09:48:55;;;;;;;6.75;1.40;;;15.50;99.90;;;;;;6118842;23;20014;-86
2022/09/14 09:51:23;;;;;;;9.00;1.63;;;15.40;99.90;;;;;;6119588;23;20006;-88
2022/09/14 09:54:11;;;;;;;9.27;1.48;;;15.50;99.90;;;;;;6119180;23;20392;-89
2022/09/14 09:56:52;;;;;;;2.83;1.10;;;15.50;99.90;;;;;;6119523;23;20002;-89
2022/09/14 09:59:45;;;;;;;4.93;1.65;;;15.50;99.90;;;;;;6119345;23;20002;-88
2022/09/14 10:02:26;;;;;;;5.22;1.08;;;15.50;99.90;;;;;;6094056;23;20505;-89
2022/09/14 10:05:02;;;;;;;7.22;1.10;;;15.50;99.90;;;;;;6118916;23;20009;-90
2022/09/14 10:07:30;;;;;;;5.53;1.40;;;15.50;99.90;;;;;;6118927;23;20013;-89
2022/09/14 10:10:08;;;;;;;5.05;1.35;;;15.50;99.90;;;;;;6093345;23;20048;-89
2022/09/14 10:12:44;;;;;;;6.13;2.13;;;15.50;99.90;;;;;;6118826;23;20024;-89
2022/09/14 10:15:20;;;;;;;4.20;0.93;;;15.50;99.90;;;;;;6119453;23;20067;-89
2022/09/14 10:18:34;;;;;;;7.78;1.50;;;15.60;99.90;;;;;;6116634;23;20002;-88
2022/09/14 10:21:07;;;;;;;4.13;1.20;;;15.60;99.90;;;;;;6117799;23;20030;-89
2022/09/14 10:23:43;;;;;;;8.48;1.35;;;15.60;99.90;;;;;;6117474;23;20030;-88
2022/09/14 10:26:12;;;;;;;8.98;1.90;;;15.60;99.90;;;;;;6119341;23;20002;-89
2022/09/14 10:28:48;;;;;;;6.90;1.17;;;15.60;99.90;;;;;;6092686;23;20037;-89
2022/09/14 10:31:17;;;;;;;6.90;1.70;;;15.60;99.90;;;;;;6119600;23;20006;-88
2022/09/14 10:33:52;;;;;;;5.75;1.30;;;15.60;99.90;;;;;;6118717;23;20079;-87
2022/09/14 10:36:38;;;;;;;6.68;1.55;;;15.60;99.90;;;;;;6119247;23;20003;-83
2022/09/14 10:39:15;;;;;;;10.25;1.50;;;15.60;99.90;;;;;;6118960;23;20006;-90
2022/09/14 10:41:53;;;;;;;6.82;1.42;;;15.60;99.90;;;;;;6120022;23;20324;-89
2022/09/14 10:44:42;;;;;;;10.23;2.05;;;15.60;99.90;;;;;;6118397;23;20085;-89
2022/09/14 10:47:15;;;;;;;5.68;1.65;;;15.60;99.90;;;;;;6120029;23;20008;-87
2022/09/14 10:50:02;;;;;;;6.40;1.45;;;15.60;99.90;;;;;;6118385;23;20010;-90
2022/09/14 10:52:49;;;;;;;8.52;1.98;;;15.60;99.90;;;;;;6118145;23;20022;-82
2022/09/14 10:55:30;;;;;;;5.47;1.55;;;15.60;99.90;;;;;;6116393;23;20013;-90
2022/09/14 10:58:19;;;;;;;7.03;1.40;;;15.60;99.90;;;;;;6118289;23;20010;-88
2022/09/14 11:01:09;;;;;;;7.50;1.40;;;15.60;99.90;;;;;;6116254;23;20063;-88
2022/09/14 11:04:12;;;;;;;6.40;1.38;;;15.60;99.90;;;;;;6115850;23;20002;-85
2022/09/14 11:07:00;;;;;;;3.72;1.10;;;15.60;99.90;;;;;;6118608;23;20060;-89
2022/09/14 11:09:32;;;;;;;8.63;1.75;;;15.60;99.90;;;;;;6117718;23;20352;-89
2022/09/14 11:12:18;;;;;;;3.28;1.23;;;15.60;99.90;;;;;;6119609;23;20064;-89
2022/09/14 11:15:08;;;;;;;4.85;0.88;;;15.60;99.90;;;;;;6118803;23;20030;-89
2022/09/14 11:17:55;;;;;;;3.20;0.98;;;15.70;99.90;;;;;;6120054;23;20016;-82
2022/09/14 11:20:29;;;;;;;4.22;1.52;;;15.70;99.90;;;;;;6120075;23;20006;-88
2022/09/14 11:23:29;;;;;;;4.43;1.23;;;15.70;99.90;;;;;;6118974;23;20005;-89
2022/09/14 11:26:16;;;;;;;6.45;1.48;;;15.70;99.90;;;;;;6120149;23;20006;-89
2022/09/14 11:28:56;;;;;;;6.15;1.42;;;15.70;99.90;;;;;;6118450;23;20514;-89
2022/09/14 11:31:30;;;;;;;9.20;1.63;;;15.80;99.90;;;;;;6119976;23;20052;-88
2022/09/14 11:34:17;;;;;;;23.27;3.55;;;15.70;99.90;;;;;;6118094;23;20006;-87
2022/09/14 11:36:57;;;;;;;7.60;1.63;;;15.80;99.90;;;;;;6119592;23;20481;-88
2022/09/14 11:39:30;;;;;;;8.98;1.27;;;15.80;99.90;;;;;;6118688;23;20010;-89
2022/09/14 11:42:28;;;;;;;12.60;1.42;;;15.70;99.90;;;;;;6119920;23;20018;-89
2022/09/14 11:45:01;;;;;;;9.23;1.70;;;15.80;99.90;;;;;;6118990;23;20028;-86
2022/09/14 11:47:32;;;;;;;5.82;1.25;;;15.70;99.90;;;;;;6120161;23;20009;-89
2022/09/14 11:50:16;;;;;;;10.02;1.77;;;15.80;99.90;;;;;;6118624;23;20084;-89
2022/09/14 11:52:42;;;;;;;14.88;2.25;;;15.80;99.90;;;;;;6118921;23;20370;-87
2022/09/14 11:55:14;;;;;;;8.52;1.70;;;15.80;99.90;;;;;;6119925;23;20002;-89
2022/09/14 11:57:43;;;;;;;11.00;1.90;;;15.80;99.90;;;;;;6119906;23;20010;-89
2022/09/14 12:00:24;;;;;;;8.48;1.95;;;15.80;99.90;;;;;;6119827;23;20006;-88
2022/09/14 12:03:16;;;;;;;8.35;1.52;;;15.90;99.90;;;;;;6119182;23;20068;-87
2022/09/14 12:05:51;;;;;;;11.00;1.80;;;15.90;99.90;;;;;;6120004;23;20069;-89
2022/09/14 12:08:23;;;;;;;8.20;1.57;;;15.90;99.90;;;;;;6119062;23;20013;-90
2022/09/14 12:11:37;;;;;;;6.53;1.38;;;15.90;99.90;;;;;;6119375;23;20005;-84
2022/09/14 12:14:21;;;;;;;7.13;1.10;;;15.90;99.90;;;;;;6141150;23;20044;-87
2022/09/14 12:17:26;;;;;;;8.52;1.77;;;15.90;99.90;;;;;;6120030;23;20006;-90
2022/09/14 12:19:56;;;;;;;8.50;1.65;;;15.90;99.90;;;;;;6118167;23;20006;-87
2022/09/14 12:22:32;;;;;;;8.02;2.22;;;15.90;99.90;;;;;;6118551;23;20002;-89
2022/09/14 12:25:09;;;;;;;11.70;1.58;;;15.90;99.90;;;;;;6118187;23;20006;-89
2022/09/14 12:27:39;;;;;;;10.60;2.28;;;15.90;99.90;;;;;;6119927;23;20002;-87
2022/09/14 12:30:53;;;;;;;12.57;2.03;;;15.90;99.90;;;;;;6118069;23;20010;-86
2022/09/14 12:33:31;;;;;;;12.02;2.15;;;15.90;99.90;;;;;;6118246;23;20001;-89
2022/09/14 12:36:04;;;;;;;7.47;2.00;;;16.00;99.90;;;;;;6117352;23;20002;-89
2022/09/14 12:38:29;;;;;;;10.45;2.78;;;16.00;99.90;;;;;;6118307;23;20024;-85
2022/09/14 12:41:07;;;;;;;8.60;3.17;;;16.00;99.90;;;;;;6119533;23;20415;-88
2022/09/14 12:43:35;;;;;;;10.00;3.42;;;16.00;99.90;;;;;;6117979;23;20376;-88
2022/09/14 12:46:08;;;;;;;14.25;3.10;;;15.90;99.90;;;;;;6119463;23;20009;-87
2022/09/14 12:48:49;;;;;;;8.65;2.78;;;16.00;99.90;;;;;;6118293;23;20014;-89
2022/09/14 12:51:30;;;;;;;6.57;2.13;;;15.90;99.90;;;;;;6119577;23;19998;-89
2022/09/14 12:54:08;;;;;;;7.20;1.80;;;16.00;99.90;;;;;;6118311;23;20387;-89
2022/09/14 12:56:38;;;;;;;9.40;1.75;;;15.90;99.90;;;;;;6119287;23;20315;-88
2022/09/14 12:59:27;;;;;;;3.42;1.13;;;15.90;99.90;;;;;;6116639;23;20496;-87
2022/09/14 13:02:19;;;;;;;5.10;1.63;;;15.90;99.90;;;;;;6115380;23;20006;-85
2022/09/14 13:04:52;;;;;;;6.85;1.25;;;15.80;99.90;;;;;;6116658;23;20006;-89
2022/09/14 13:07:20;;;;;;;3.85;1.63;;;15.80;99.90;;;;;;6118217;23;20002;-88
2022/09/14 13:09:48;;;;;;;8.18;1.70;;;15.90;99.90;;;;;;6116649;23;20014;-86
2022/09/14 13:12:19;;;;;;;5.25;1.55;;;15.90;99.90;;;;;;6116738;23;20167;-90
2022/09/14 13:14:54;;;;;;;5.68;1.65;;;15.80;99.90;;;;;;6117143;23;20087;-88
2022/09/14 13:17:20;;;;;;;8.30;1.88;;;15.90;99.90;;;;;;6118022;23;20002;-89
2022/09/14 13:20:02;;;;;;;5.00;1.58;;;15.90;99.90;;;;;;6117724;23;20005;-88
2022/09/14 13:22:33;;;;;;;5.40;1.40;;;15.90;99.90;;;;;;6118168;23;20006;-88
2022/09/14 13:25:00;;;;;;;3.88;1.25;;;15.90;99.90;;;;;;6117675;23;20328;-89
2022/09/14 13:27:34;;;;;;;8.70;2.10;;;15.80;99.90;;;;;;6119305;23;20002;-86
2022/09/14 13:30:27;;;;;;;6.13;1.98;;;15.80;99.90;;;;;;6117524;23;20014;-88
2022/09/14 13:32:55;;;;;;;5.13;1.60;;;15.90;99.90;;;;;;6119109;23;20378;-87
2022/09/14 13:35:37;;;;;;;3.40;1.60;;;15.80;99.90;;;;;;6117683;23;20002;-87
2022/09/14 13:38:08;;;;;;;6.32;1.98;;;15.80;99.90;;;;;;6117643;23;20084;-85
2022/09/14 13:40:36;;;;;;;8.63;2.08;;;15.80;99.90;;;;;;6119579;23;20013;-88
2022/09/14 13:43:02;;;;;;;3.53;1.98;;;15.80;99.90;;;;;;6117531;23;20004;-87
2022/09/14 13:45:27;;;;;;;3.80;1.80;;;15.80;99.90;;;;;;6117453;23;20002;-87